createdAt,value
2017-09-09T00:00:04.467Z,3.60
2017-09-09T00:02:31.083Z,3.70
2017-09-09T00:04:57.692Z,3.60
2017-09-09T00:07:24.299Z,3.50
2017-09-09T00:09:50.886Z,3.90
2017-09-09T00:12:17.471Z,3.27
2017-09-09T00:14:44.060Z,2.90
2017-09-09T00:17:10.634Z,3.30
2017-09-09T00:19:37.414Z,3.17
2017-09-09T00:22:04.055Z,3.40
2017-09-09T00:24:30.651Z,2.97
2017-09-09T00:26:57.240Z,2.97
2017-09-09T00:29:23.859Z,3.00
2017-09-09T00:31:50.421Z,2.53
2017-09-09T00:34:17.021Z,3.47
2017-09-09T00:36:43.635Z,3.10
2017-09-09T00:39:10.220Z,3.07
2017-09-09T00:41:36.811Z,3.10
2017-09-09T00:44:03.395Z,3.10
2017-09-09T00:46:29.979Z,3.00
2017-09-09T00:48:56.588Z,3.13
2017-09-09T00:51:23.173Z,2.80
2017-09-09T00:53:49.759Z,2.80
2017-09-09T00:56:16.354Z,2.83
2017-09-09T00:58:42.934Z,2.80
2017-09-09T01:01:09.515Z,2.90
2017-09-09T01:03:36.099Z,2.63
2017-09-09T01:06:02.674Z,2.60
2017-09-09T01:08:29.406Z,2.70
2017-09-09T01:10:55.985Z,2.93
2017-09-09T01:13:22.566Z,2.77
2017-09-09T01:15:49.162Z,2.90
2017-09-09T01:18:15.744Z,2.70
2017-09-09T01:20:42.338Z,2.63
2017-09-09T01:23:08.921Z,2.47
2017-09-09T01:25:35.503Z,2.80
2017-09-09T01:28:02.111Z,2.83
2017-09-09T01:30:28.703Z,3.10
2017-09-09T01:32:55.322Z,2.83
2017-09-09T01:35:22.002Z,2.63
2017-09-09T01:37:48.566Z,2.83
2017-09-09T01:40:15.166Z,2.97
2017-09-09T01:42:41.742Z,3.43
2017-09-09T01:45:08.478Z,2.87
2017-09-09T01:47:35.058Z,3.13
2017-09-09T01:50:01.645Z,3.20
2017-09-09T01:52:28.241Z,2.93
2017-09-09T01:54:54.810Z,3.03
2017-09-09T01:57:21.503Z,2.87
2017-09-09T01:59:48.104Z,3.10
2017-09-09T02:02:14.682Z,3.27
2017-09-09T02:04:41.283Z,3.00
2017-09-09T02:07:07.871Z,3.00
2017-09-09T02:09:34.463Z,3.40
2017-09-09T02:12:01.046Z,3.10
2017-09-09T02:14:27.622Z,3.43
2017-09-09T02:16:54.212Z,3.27
2017-09-09T02:19:20.799Z,2.67
2017-09-09T02:21:47.515Z,2.87
2017-09-09T02:24:14.089Z,2.60
2017-09-09T02:26:40.681Z,2.80
2017-09-09T02:29:07.269Z,2.30
2017-09-09T02:31:33.853Z,3.17
2017-09-09T02:34:00.654Z,3.00
2017-09-09T02:36:27.241Z,2.70
2017-09-09T02:38:53.828Z,2.53
2017-09-09T02:41:20.417Z,3.10
2017-09-09T02:43:47.022Z,2.80
2017-09-09T02:46:13.752Z,2.80
2017-09-09T02:48:40.329Z,2.70
2017-09-09T02:51:06.916Z,2.57
2017-09-09T02:53:33.507Z,2.83
2017-09-09T02:56:00.086Z,2.67
2017-09-09T02:58:26.711Z,3.20
2017-09-09T03:00:53.360Z,3.00
2017-09-09T03:03:19.942Z,2.83
2017-09-09T03:05:46.541Z,3.10
2017-09-09T03:08:13.126Z,2.83
2017-09-09T03:10:39.770Z,2.70
2017-09-09T03:13:06.359Z,2.70
2017-09-09T03:15:32.934Z,2.83
2017-09-09T03:17:59.530Z,2.67
2017-09-09T03:20:26.111Z,2.60
2017-09-09T03:22:52.818Z,2.50
2017-09-09T03:25:19.400Z,2.70
2017-09-09T03:27:45.985Z,2.53
2017-09-09T03:30:12.566Z,2.53
2017-09-09T03:32:39.155Z,2.17
2017-09-09T03:35:05.838Z,2.40
2017-09-09T03:37:32.501Z,2.60
2017-09-09T03:39:59.074Z,2.10
2017-09-09T03:42:25.666Z,2.40
2017-09-09T03:44:52.251Z,2.20
2017-09-09T03:47:19.023Z,2.20
2017-09-09T03:49:45.714Z,2.50
2017-09-09T03:52:12.297Z,2.20
2017-09-09T03:54:38.885Z,2.13
2017-09-09T03:57:05.462Z,1.90
2017-09-09T03:59:32.209Z,2.43
2017-09-09T04:01:58.783Z,2.07
2017-09-09T04:04:25.369Z,2.50
2017-09-09T04:06:51.961Z,2.20
2017-09-09T04:09:18.539Z,2.03
2017-09-09T04:11:45.222Z,2.10
2017-09-09T04:14:11.822Z,2.30
2017-09-09T04:16:38.405Z,2.00
2017-09-09T04:19:05.006Z,1.73
2017-09-09T04:21:31.587Z,1.90
2017-09-09T04:23:58.182Z,2.20
2017-09-09T04:26:24.771Z,2.00
2017-09-09T04:28:51.349Z,1.93
2017-09-09T04:31:17.936Z,2.10
2017-09-09T04:33:44.608Z,2.40
2017-09-09T04:36:11.306Z,2.17
2017-09-09T04:38:37.887Z,2.00
2017-09-09T04:41:04.466Z,2.47
2017-09-09T04:43:31.060Z,2.50
2017-09-09T04:45:57.642Z,2.47
2017-09-09T04:48:24.338Z,2.43
2017-09-09T04:50:50.938Z,2.10
2017-09-09T04:53:17.520Z,2.37
2017-09-09T04:55:44.110Z,2.73
2017-09-09T04:58:10.696Z,2.43
2017-09-09T05:00:37.298Z,3.03
2017-09-09T05:03:03.874Z,2.40
2017-09-09T05:05:30.451Z,2.80
2017-09-09T05:07:57.117Z,2.40
2017-09-09T05:10:23.699Z,2.43
2017-09-09T05:12:50.434Z,2.90
2017-09-09T05:15:17.027Z,3.27
2017-09-09T05:17:43.614Z,3.13
2017-09-09T05:20:10.195Z,3.10
2017-09-09T05:22:36.797Z,2.90
2017-09-09T05:25:03.564Z,3.67
2017-09-09T05:27:30.142Z,3.10
2017-09-09T05:29:56.738Z,3.90
2017-09-09T05:32:23.327Z,3.63
2017-09-09T05:34:49.911Z,3.77
2017-09-09T05:37:16.531Z,3.57
2017-09-09T05:39:43.110Z,2.83
2017-09-09T05:42:09.681Z,2.90
2017-09-09T05:44:36.294Z,2.67
2017-09-09T05:47:02.876Z,3.03
2017-09-09T05:49:29.470Z,2.77
2017-09-09T05:51:56.051Z,2.87
2017-09-09T05:54:22.643Z,2.70
2017-09-09T05:56:49.228Z,2.40
2017-09-09T05:59:15.812Z,3.30
2017-09-09T06:01:42.430Z,2.63
2017-09-09T06:04:09.050Z,2.87
2017-09-09T06:12:04.168Z,3.57
2017-09-09T06:14:30.736Z,3.50
2017-09-09T06:16:57.334Z,3.50
2017-09-09T06:19:23.913Z,3.40
2017-09-09T06:21:50.517Z,3.23
2017-09-09T06:24:17.080Z,3.40
2017-09-09T06:26:44.018Z,2.70
2017-09-09T06:29:10.684Z,2.67
2017-09-09T06:31:37.255Z,2.70
2017-09-09T06:34:03.824Z,2.30
2017-09-09T06:36:30.401Z,2.47
2017-09-09T06:38:57.013Z,2.70
2017-09-09T06:41:23.600Z,2.07
2017-09-09T06:43:50.178Z,2.60
2017-09-09T06:46:16.741Z,2.80
2017-09-09T06:48:43.318Z,2.80
2017-09-09T06:51:09.884Z,2.73
2017-09-09T06:53:36.472Z,2.50
2017-09-09T06:56:03.041Z,2.90
2017-09-09T06:58:29.627Z,2.60
2017-09-09T07:00:56.208Z,2.90
2017-09-09T07:03:22.778Z,2.53
2017-09-09T07:05:49.378Z,2.33
2017-09-09T07:08:15.944Z,2.90
2017-09-09T07:10:42.525Z,2.63
2017-09-09T07:13:09.105Z,2.50
2017-09-09T07:15:35.698Z,2.13
2017-09-09T07:18:02.277Z,2.13
2017-09-09T07:20:28.849Z,2.30
2017-09-09T07:22:55.425Z,2.27
2017-09-09T07:25:22.000Z,2.20
2017-09-09T07:27:48.572Z,2.07
2017-09-09T07:30:15.160Z,2.40
2017-09-09T07:32:41.732Z,2.27
2017-09-09T07:35:08.305Z,2.20
2017-09-09T07:37:34.886Z,2.20
2017-09-09T07:40:01.453Z,2.00
2017-09-09T07:42:28.040Z,1.80
2017-09-09T07:44:54.609Z,2.00
2017-09-09T07:47:21.176Z,2.13
2017-09-09T07:49:47.767Z,1.90
2017-09-09T07:52:14.325Z,1.80
2017-09-09T07:54:40.905Z,2.00
2017-09-09T07:57:07.476Z,2.20
2017-09-09T07:59:34.049Z,1.80
2017-09-09T08:02:00.638Z,2.17
2017-09-09T08:04:27.208Z,2.20
2017-09-09T08:06:53.776Z,1.63
2017-09-09T08:09:20.360Z,1.70
2017-09-09T08:11:46.937Z,1.90
2017-09-09T08:14:13.512Z,1.80
2017-09-09T08:16:40.086Z,1.60
2017-09-09T08:19:06.753Z,1.80
2017-09-09T08:21:33.352Z,1.40
2017-09-09T08:24:10.016Z,1.70
2017-09-09T08:26:36.589Z,1.50
2017-09-09T08:29:03.172Z,1.53
2017-09-09T08:31:29.756Z,1.90
2017-09-09T08:33:56.339Z,1.63
2017-09-09T08:36:22.930Z,1.47
2017-09-09T08:38:49.500Z,1.37
2017-09-09T08:41:19.383Z,1.47
2017-09-09T08:43:46.076Z,1.40
2017-09-09T08:46:12.696Z,1.50
2017-09-09T08:48:46.502Z,1.40
2017-09-09T08:51:13.069Z,1.40
2017-09-09T08:53:39.684Z,1.20
2017-09-09T08:56:09.842Z,1.33
2017-09-09T08:58:39.865Z,1.10
2017-09-09T09:01:06.452Z,1.10
2017-09-09T09:03:33.020Z,1.40
2017-09-09T09:05:59.593Z,1.20
2017-09-09T09:08:26.173Z,1.57
2017-09-09T09:10:55.731Z,1.17
2017-09-09T09:13:25.412Z,1.20
2017-09-09T09:15:51.991Z,1.13
2017-09-09T09:18:18.556Z,1.50
2017-09-09T09:20:45.135Z,1.40
2017-09-09T09:23:11.705Z,1.77
2017-09-09T09:25:38.289Z,1.37
2017-09-09T09:28:04.865Z,1.30
2017-09-09T09:30:31.444Z,1.27
2017-09-09T09:32:59.532Z,1.40
2017-09-09T09:35:26.105Z,1.27
2017-09-09T09:37:52.704Z,1.40
2017-09-09T09:40:19.300Z,1.40
2017-09-09T09:42:56.188Z,1.50
2017-09-09T09:45:22.768Z,3.00
2017-09-09T09:47:49.336Z,2.20
2017-09-09T09:50:15.938Z,2.10
2017-09-09T09:52:42.745Z,2.60
2017-09-09T09:55:09.377Z,2.90
2017-09-09T09:57:35.982Z,3.27
2017-09-09T10:00:02.589Z,3.30
2017-09-09T10:02:29.231Z,3.40
2017-09-09T10:04:55.862Z,3.63
2017-09-09T10:07:22.544Z,3.40
2017-09-09T10:09:49.334Z,3.47
2017-09-09T10:12:16.095Z,3.00
2017-09-09T10:14:42.673Z,3.50
2017-09-09T10:17:09.292Z,3.37
2017-09-09T10:19:35.890Z,3.10
2017-09-09T10:22:02.484Z,3.47
2017-09-09T10:24:48.857Z,3.90
2017-09-09T10:27:15.434Z,3.53
2017-09-09T10:29:42.007Z,2.67
2017-09-09T10:32:08.585Z,2.50
2017-09-09T10:34:35.169Z,2.50
2017-09-09T10:37:01.757Z,2.03
2017-09-09T10:39:28.332Z,2.00
2017-09-09T10:41:54.913Z,2.30
2017-09-09T10:44:21.488Z,1.87
2017-09-09T10:46:48.052Z,1.90
2017-09-09T10:49:14.642Z,2.13
2017-09-09T10:51:41.208Z,2.10
2017-09-09T10:54:07.789Z,2.40
2017-09-09T10:56:34.387Z,2.43
2017-09-09T10:59:00.993Z,1.90
2017-09-09T11:01:27.569Z,2.53
2017-09-09T11:03:54.140Z,2.43
2017-09-09T11:06:20.721Z,2.10
2017-09-09T11:08:47.292Z,2.03
2017-09-09T11:11:13.860Z,2.37
2017-09-09T11:13:40.444Z,2.43
2017-09-09T11:16:07.012Z,3.10
2017-09-09T11:18:33.588Z,3.30
2017-09-09T11:21:00.159Z,3.10
2017-09-09T11:23:26.736Z,1.70
2017-09-09T11:25:59.409Z,2.10
2017-09-09T11:28:26.068Z,2.00
2017-09-09T11:30:52.621Z,1.93
2017-09-09T11:33:19.196Z,2.10
2017-09-09T11:35:45.768Z,1.97
2017-09-09T11:38:12.376Z,1.90
2017-09-09T11:40:38.956Z,1.90
2017-09-09T11:43:05.544Z,2.10
2017-09-09T11:45:32.128Z,2.10
2017-09-09T11:47:58.697Z,2.37
2017-09-09T11:50:25.496Z,1.83
2017-09-09T11:52:52.057Z,2.00
2017-09-09T11:55:18.628Z,2.13
2017-09-09T11:57:45.205Z,1.60
2017-09-09T12:00:12.138Z,2.00
2017-09-09T12:02:38.696Z,2.30
2017-09-09T12:05:05.299Z,2.10
2017-09-09T12:07:31.878Z,2.20
2017-09-09T12:09:58.449Z,2.10
2017-09-09T12:12:25.029Z,2.20
2017-09-09T12:14:51.611Z,2.20
2017-09-09T12:17:18.206Z,1.97
2017-09-09T12:19:46.118Z,1.83
2017-09-09T12:22:12.696Z,2.13
2017-09-09T12:24:42.700Z,3.10
2017-09-09T12:27:12.524Z,1.70
2017-09-09T12:29:42.312Z,2.20
2017-09-09T12:32:08.969Z,1.93
2017-09-09T12:34:35.589Z,2.33
2017-09-09T12:37:12.082Z,1.80
2017-09-09T12:39:38.654Z,2.07
2017-09-09T12:42:05.243Z,2.13
2017-09-09T12:44:31.848Z,2.20
2017-09-09T12:46:58.424Z,1.63
2017-09-09T12:49:24.989Z,1.90
2017-09-09T12:51:52.140Z,1.70
2017-09-09T12:54:26.093Z,1.83
2017-09-09T12:56:52.729Z,2.30
2017-09-09T12:59:19.308Z,2.30
2017-09-09T13:01:45.903Z,2.40
2017-09-09T13:04:12.481Z,2.10
2017-09-09T13:06:39.054Z,2.00
2017-09-09T13:09:05.620Z,2.50
2017-09-09T13:11:32.232Z,1.80
2017-09-09T13:14:04.639Z,1.83
2017-09-09T13:16:31.208Z,1.80
2017-09-09T13:18:57.790Z,1.90
2017-09-09T13:21:24.364Z,1.60
2017-09-09T13:23:50.978Z,1.70
2017-09-09T13:26:17.550Z,1.93
2017-09-09T13:28:44.123Z,1.83
2017-09-09T13:31:10.805Z,2.00
2017-09-09T13:33:37.376Z,1.87
2017-09-09T13:36:03.970Z,2.13
2017-09-09T13:38:30.544Z,2.17
2017-09-09T13:40:57.174Z,1.90
2017-09-09T13:43:23.793Z,1.70
2017-09-09T13:45:50.345Z,2.00
2017-09-09T13:48:16.950Z,2.03
2017-09-09T13:50:43.561Z,1.90
2017-09-09T13:53:10.140Z,1.90
2017-09-09T13:55:36.716Z,2.10
2017-09-09T13:58:03.304Z,1.70
2017-09-09T14:00:29.893Z,2.00
2017-09-09T14:02:56.525Z,1.80
2017-09-09T14:05:23.085Z,1.90
2017-09-09T14:07:49.696Z,1.90
2017-09-09T14:10:16.288Z,1.90
2017-09-09T14:12:42.849Z,1.90
2017-09-09T14:15:09.441Z,2.47
2017-09-09T14:17:36.016Z,2.23
2017-09-09T14:20:02.590Z,1.70
2017-09-09T14:22:29.177Z,1.87
2017-09-09T14:24:55.744Z,2.10
2017-09-09T14:27:22.363Z,2.40
2017-09-09T14:29:48.948Z,2.97
2017-09-09T14:32:15.525Z,2.60
2017-09-09T14:34:42.092Z,2.50
2017-09-09T14:37:08.671Z,1.93
2017-09-09T14:39:35.240Z,1.60
2017-09-09T14:42:01.809Z,1.80
2017-09-09T14:44:28.407Z,2.33
2017-09-09T14:46:54.998Z,2.00
2017-09-09T14:49:21.594Z,1.83
2017-09-09T14:51:48.239Z,1.83
2017-09-09T14:54:15.086Z,1.70
2017-09-09T14:56:41.678Z,1.90
2017-09-09T14:59:08.266Z,2.00
2017-09-09T15:01:34.833Z,1.70
2017-09-09T15:04:01.484Z,2.00
2017-09-09T15:06:28.068Z,1.83
2017-09-09T15:08:54.628Z,1.90
2017-09-09T15:11:21.209Z,1.80
2017-09-09T15:13:47.793Z,2.10
2017-09-09T15:16:14.371Z,2.00
2017-09-09T15:18:40.945Z,2.23
2017-09-09T15:21:07.588Z,2.10
2017-09-09T15:23:34.197Z,2.43
2017-09-09T15:26:00.769Z,2.10
2017-09-09T15:28:27.353Z,2.40
2017-09-09T15:30:53.920Z,2.53
2017-09-09T15:33:20.488Z,2.90
2017-09-09T15:35:47.084Z,2.70
2017-09-09T15:38:13.649Z,2.77
2017-09-09T15:40:40.215Z,2.30
2017-09-09T15:43:06.797Z,2.57
2017-09-09T15:45:33.372Z,2.60
2017-09-09T15:47:59.952Z,2.20
2017-09-09T15:50:26.617Z,2.10
2017-09-09T15:52:53.188Z,2.53
2017-09-09T15:55:19.785Z,2.60
2017-09-09T15:57:46.378Z,2.80
2017-09-09T16:00:12.948Z,2.70
2017-09-09T16:02:39.631Z,2.87
2017-09-09T16:05:06.323Z,2.60
2017-09-09T16:07:32.872Z,2.97
2017-09-09T16:09:59.487Z,2.27
2017-09-09T16:12:26.076Z,2.30
2017-09-09T16:14:52.653Z,2.17
2017-09-09T16:17:19.263Z,2.60
2017-09-09T16:19:45.856Z,2.90
2017-09-09T16:22:12.452Z,3.20
2017-09-09T16:24:39.018Z,3.40
2017-09-09T16:27:05.616Z,3.90
2017-09-09T16:29:32.188Z,3.70
2017-09-09T16:31:58.757Z,3.43
2017-09-09T16:34:35.617Z,3.20
2017-09-09T16:37:12.748Z,3.40
2017-09-09T16:39:43.926Z,2.40
2017-09-09T16:42:12.378Z,2.57
2017-09-09T16:45:28.491Z,2.57
2017-09-09T16:48:12.758Z,2.30
2017-09-09T16:53:33.422Z,2.33
2017-09-09T16:59:05.262Z,2.73
2017-09-09T17:07:30.896Z,2.30
2017-09-09T17:12:45.493Z,2.10
2017-09-09T17:15:12.057Z,2.10
2017-09-09T17:17:38.639Z,2.30
2017-09-09T17:20:05.224Z,2.03
2017-09-09T17:22:31.794Z,2.20
2017-09-09T17:24:58.366Z,2.10
2017-09-09T17:27:24.951Z,2.30
2017-09-09T17:29:51.534Z,2.00
2017-09-09T17:32:18.101Z,2.07
2017-09-09T17:34:44.702Z,2.13
2017-09-09T17:37:11.362Z,2.57
2017-09-09T17:39:37.926Z,2.70
2017-09-09T17:42:04.514Z,3.30
2017-09-09T17:44:40.081Z,5.00
2017-09-09T17:47:20.097Z,5.40
2017-09-09T17:52:38.396Z,5.13
2017-09-09T18:01:16.524Z,3.50
2017-09-09T18:06:59.622Z,2.97
2017-09-09T18:09:34.852Z,2.90
2017-09-09T18:30:07.285Z,2.70
2017-09-09T18:47:53.452Z,4.30
2017-09-09T18:53:16.546Z,3.77
2017-09-09T18:58:55.123Z,4.00
2017-09-09T19:01:42.132Z,2.80
2017-09-09T19:04:30.898Z,3.07
2017-09-09T19:07:06.361Z,3.60
2017-09-09T19:09:50.188Z,3.00
2017-09-09T19:41:06.792Z,3.13
2017-09-09T19:43:33.422Z,3.30
2017-09-09T19:45:59.996Z,2.97
2017-09-09T19:48:26.611Z,3.60
2017-09-09T19:50:53.239Z,3.50
2017-09-09T19:53:19.816Z,3.20
2017-09-09T19:55:46.416Z,3.37
2017-09-09T19:58:13.151Z,3.20
2017-09-09T20:00:39.717Z,3.70
2017-09-09T20:03:06.304Z,4.50
2017-09-09T20:05:32.907Z,4.20
2017-09-09T20:07:59.514Z,4.60
2017-09-09T20:10:26.073Z,4.60
2017-09-09T20:12:52.644Z,4.60
2017-09-09T20:15:19.220Z,4.30
2017-09-09T20:17:45.823Z,4.83
2017-09-09T20:20:12.400Z,4.37
2017-09-09T20:22:38.970Z,5.07
2017-09-09T20:25:05.552Z,4.90
2017-09-09T20:27:32.128Z,5.30
2017-09-09T20:29:58.700Z,5.40
2017-09-09T20:32:25.293Z,5.60
2017-09-09T20:34:51.865Z,5.40
2017-09-09T20:37:18.434Z,6.20
2017-09-09T20:39:45.033Z,6.17
2017-09-09T20:42:12.805Z,6.03
2017-09-09T20:44:39.433Z,5.70
2017-09-09T20:47:06.026Z,5.50
2017-09-09T20:49:32.608Z,5.07
2017-09-09T20:51:59.184Z,5.33
2017-09-09T20:54:25.774Z,5.20
2017-09-09T20:56:52.362Z,5.67
2017-09-09T20:59:18.938Z,5.40
2017-09-09T21:01:45.534Z,5.23
2017-09-09T21:04:12.104Z,5.00
2017-09-09T21:06:38.682Z,5.47
2017-09-09T21:09:05.256Z,5.27
2017-09-09T21:11:31.832Z,5.23
2017-09-09T21:13:58.435Z,4.87
2017-09-09T21:16:25.007Z,4.80
2017-09-09T21:18:51.568Z,5.20
2017-09-09T21:21:18.157Z,4.70
2017-09-09T21:23:44.776Z,4.80
2017-09-09T21:26:11.360Z,5.03
2017-09-09T21:28:43.716Z,4.30
2017-09-09T21:31:10.404Z,4.77
2017-09-09T21:33:36.965Z,4.90
2017-09-09T21:36:03.592Z,5.43
2017-09-09T21:38:30.176Z,4.80
2017-09-09T21:40:56.741Z,4.90
2017-09-09T21:43:23.316Z,5.17
2017-09-09T21:45:49.900Z,4.93
2017-09-09T21:48:16.477Z,5.30
2017-09-09T21:50:43.052Z,4.60
2017-09-09T21:53:09.649Z,4.80
2017-09-09T21:55:36.229Z,4.97
2017-09-09T21:58:02.793Z,5.23
2017-09-09T22:00:29.479Z,5.03
2017-09-09T22:02:56.057Z,5.10
2017-09-09T22:05:22.612Z,4.73
2017-09-09T22:07:49.201Z,4.87
2017-09-09T22:10:15.814Z,4.83
2017-09-09T22:12:42.357Z,4.77
2017-09-09T22:15:08.936Z,4.50
2017-09-09T22:17:35.536Z,4.70
2017-09-09T22:20:02.113Z,4.53
2017-09-09T22:22:28.697Z,4.83
2017-09-09T22:24:55.339Z,4.67
2017-09-09T22:27:21.897Z,4.30
2017-09-09T22:29:48.540Z,5.10
2017-09-09T22:32:15.126Z,4.60
2017-09-09T22:34:41.694Z,4.07
2017-09-09T22:37:08.282Z,4.50
2017-09-09T22:39:34.855Z,4.47
2017-09-09T22:42:01.482Z,4.10
2017-09-09T22:44:28.081Z,4.53
2017-09-09T22:46:54.681Z,4.23
2017-09-09T22:49:21.245Z,3.90
2017-09-09T22:51:47.837Z,4.00
2017-09-09T22:54:14.404Z,4.80
2017-09-09T22:56:40.973Z,4.43
2017-09-09T22:59:07.567Z,3.83
2017-09-09T23:01:34.128Z,4.60
2017-09-09T23:04:00.700Z,4.33
2017-09-09T23:06:27.285Z,4.50
2017-09-09T23:08:53.857Z,4.00
2017-09-09T23:11:20.433Z,4.47
2017-09-09T23:13:47.026Z,4.17
2017-09-09T23:16:13.594Z,4.57
2017-09-09T23:18:40.160Z,4.80
2017-09-09T23:21:06.764Z,4.20
2017-09-09T23:23:33.336Z,3.60
2017-09-09T23:25:59.909Z,3.80
2017-09-09T23:28:26.500Z,3.60
2017-09-09T23:30:53.077Z,3.70
2017-09-09T23:33:19.641Z,3.90
2017-09-09T23:35:46.232Z,4.27
2017-09-09T23:38:12.812Z,3.80
2017-09-09T23:41:30.868Z,3.77
2017-09-09T23:43:57.445Z,4.33
2017-09-09T23:46:24.012Z,3.83
2017-09-09T23:48:50.597Z,3.90
2017-09-09T23:51:17.177Z,4.20
2017-09-09T23:53:43.743Z,4.67
2017-09-09T23:56:10.333Z,3.90
2017-09-09T23:58:36.909Z,3.80
